Time,TemperatureF,DewpointF,PressureIn,WindDirection,WindDirectionDegrees,WindSpeedMPH,WindSpeedGustMPH,Humidity,HourlyPrecipIn,Conditions,Clouds,dailyrainin,SoftwareType,DateUTC
2013-01-26 00:00:00,-3.1,-13.8,26.37,ENE,67,0.0,0.0,59,0.00,,,-99.99,Weather View 32 v70,2013-01-26 06:00:00,
2013-01-26 00:08:00,-3.1,-13.8,26.37,ENE,67,0.0,0.0,59,0.00,,,-99.99,Weather View 32 v70,2013-01-26 06:08:00,
2013-01-26 00:15:00,-3.1,-13.8,26.37,ENE,67,0.0,0.0,59,0.00,,,-99.99,Weather View 32 v70,2013-01-26 06:15:00,
2013-01-26 00:20:00,-3.1,-13.8,26.37,ENE,67,0.0,0.0,59,0.00,,,-99.99,Weather View 32 v70,2013-01-26 06:20:00,
2013-01-26 00:25:00,-3.1,-13.8,26.37,SE,124,2.0,4.0,59,0.00,,,-99.99,Weather View 32 v70,2013-01-26 06:25:00,
2013-01-26 00:30:00,-3.3,-14.0,26.37,SE,124,0.0,4.0,59,0.00,,,-99.99,Weather View 32 v70,2013-01-26 06:30:00,
2013-01-26 00:40:00,-3.5,-14.2,26.37,SE,141,3.0,4.0,59,0.00,,,-99.99,Weather View 32 v70,2013-01-26 06:40:00,
2013-01-26 00:45:00,-3.5,-14.2,26.37,SE,144,3.0,4.0,59,0.00,,,-99.99,Weather View 32 v70,2013-01-26 06:45:00,
2013-01-26 00:50:00,-3.5,-14.2,26.37,SE,143,3.0,4.0,59,0.00,,,-99.99,Weather View 32 v70,2013-01-26 06:50:00,
2013-01-26 00:55:00,-3.5,-14.2,26.37,SE,142,3.0,4.0,59,0.00,,,-99.99,Weather View 32 v70,2013-01-26 06:55:00,
2013-01-26 01:00:00,-3.6,-14.4,26.37,SSE,148,3.0,4.0,59,0.00,,,-99.99,Weather View 32 v70,2013-01-26 07:00:00,
2013-01-26 01:05:00,-3.6,-14.4,26.37,South,180,3.0,4.0,59,0.00,,,-99.99,Weather View 32 v70,2013-01-26 07:05:00,
2013-01-26 01:10:00,-3.6,-14.4,26.37,South,177,0.0,4.0,59,0.00,,,-99.99,Weather View 32 v70,2013-01-26 07:10:00,
2013-01-26 01:15:00,-3.8,-14.5,26.37,South,175,0.0,4.0,59,0.00,,,-99.99,Weather View 32 v70,2013-01-26 07:15:00,
2013-01-26 01:20:00,-3.6,-14.4,26.37,South,175,0.0,4.0,59,0.00,,,-99.99,Weather View 32 v70,2013-01-26 07:20:00,
2013-01-26 01:25:00,-3.6,-14.4,26.37,South,176,3.0,4.0,59,0.00,,,-99.99,Weather View 32 v70,2013-01-26 07:25:00,
2013-01-26 01:30:00,-3.6,-14.4,26.37,South,187,0.0,4.0,59,0.00,,,-99.99,Weather View 32 v70,2013-01-26 07:30:00,
2013-01-26 01:35:00,-3.5,-14.2,26.37,SE,129,4.0,4.0,59,0.00,,,-99.99,Weather View 32 v70,2013-01-26 07:35:00,
2013-01-26 01:45:00,-3.5,-14.2,26.37,SE,138,4.0,5.0,59,0.00,,,-99.99,Weather View 32 v70,2013-01-26 07:45:00,
2013-01-26 01:50:00,-3.3,-14.0,26.37,SE,142,0.0,5.0,59,0.00,,,-99.99,Weather View 32 v70,2013-01-26 07:50:00,
2013-01-26 01:55:00,-3.1,-13.8,26.37,SSE,147,3.0,5.0,59,0.00,,,-99.99,Weather View 32 v70,2013-01-26 07:55:00,
2013-01-26 02:00:00,-3.1,-13.8,26.37,ESE,118,4.0,5.0,59,0.00,,,-99.99,Weather View 32 v70,2013-01-26 08:00:00,
2013-01-26 02:05:00,-3.1,-13.8,26.37,SSE,148,4.0,5.0,59,0.00,,,-99.99,Weather View 32 v70,2013-01-26 08:05:00,
2013-01-26 02:10:00,-3.1,-13.8,26.37,SE,143,4.0,5.0,59,0.00,,,-99.99,Weather View 32 v70,2013-01-26 08:10:00,
2013-01-26 02:15:00,-3.1,-13.8,26.37,SE,141,3.0,5.0,59,0.00,,,-99.99,Weather View 32 v70,2013-01-26 08:15:00,
2013-01-26 02:20:00,-3.1,-13.8,26.37,South,170,0.0,5.0,59,0.00,,,-99.99,Weather View 32 v70,2013-01-26 08:20:00,
2013-01-26 02:25:00,-3.1,-13.8,26.37,SE,140,0.0,6.0,59,0.00,,,-99.99,Weather View 32 v70,2013-01-26 08:25:00,
2013-01-26 02:30:00,-3.1,-13.8,26.37,SE,145,5.0,6.0,59,0.00,,,-99.99,Weather View 32 v70,2013-01-26 08:30:00,
2013-01-26 02:35:00,-3.1,-13.8,26.37,SSE,157,3.0,6.0,59,0.00,,,-99.99,Weather View 32 v70,2013-01-26 08:35:00,
2013-01-26 02:40:00,-3.1,-13.8,26.37,South,171,4.0,6.0,59,0.00,,,-99.99,Weather View 32 v70,2013-01-26 08:40:00,
2013-01-26 02:45:00,-3.1,-13.8,26.37,South,175,3.0,6.0,59,0.00,,,-99.99,Weather View 32 v70,2013-01-26 08:45:00,
2013-01-26 02:55:00,-3.1,-13.8,26.37,SSE,153,0.0,6.0,59,0.00,,,-99.99,Weather View 32 v70,2013-01-26 08:55:00,
2013-01-26 03:00:00,-3.1,-13.8,26.37,South,171,4.0,6.0,59,0.00,,,-99.99,Weather View 32 v70,2013-01-26 09:00:00,
2013-01-26 03:05:00,-3.1,-13.8,26.37,SSE,150,0.0,6.0,59,0.00,,,-99.99,Weather View 32 v70,2013-01-26 09:05:00,
2013-01-26 03:10:00,-3.1,-13.8,26.37,SSE,163,0.0,6.0,59,0.00,,,-99.99,Weather View 32 v70,2013-01-26 09:10:00,
2013-01-26 03:20:00,-3.1,-13.8,26.37,SE,142,4.0,6.0,59,0.00,,,-99.99,Weather View 32 v70,2013-01-26 09:20:00,
2013-01-26 03:25:00,-3.1,-13.8,26.37,SE,138,3.0,6.0,59,0.00,,,-99.99,Weather View 32 v70,2013-01-26 09:25:00,
2013-01-26 03:30:00,-3.1,-13.8,26.37,SSE,149,6.0,6.0,59,0.00,,,-99.99,Weather View 32 v70,2013-01-26 09:30:00,
2013-01-26 03:35:00,-3.1,-13.8,26.37,SE,133,0.0,6.0,59,0.00,,,-99.99,Weather View 32 v70,2013-01-26 09:35:00,
2013-01-26 03:40:00,-3.1,-13.8,26.37,SE,135,4.0,6.0,59,0.00,,,-99.99,Weather View 32 v70,2013-01-26 09:40:00,
2013-01-26 03:45:00,-3.1,-13.8,26.37,SSE,151,3.0,6.0,59,0.00,,,-99.99,Weather View 32 v70,2013-01-26 09:45:00,
2013-01-26 03:50:00,-3.1,-13.8,26.37,ESE,116,3.0,6.0,59,0.00,,,-99.99,Weather View 32 v70,2013-01-26 09:50:00,
2013-01-26 04:00:00,-3.1,-13.8,26.37,South,169,3.0,6.0,59,0.00,,,-99.99,Weather View 32 v70,2013-01-26 10:00:00,
2013-01-26 04:10:00,-2.9,-13.7,26.37,SE,143,2.0,6.0,59,0.00,,,-99.99,Weather View 32 v70,2013-01-26 10:10:00,
2013-01-26 04:15:00,-2.9,-13.7,26.37,South,169,5.0,6.0,59,0.00,,,-99.99,Weather View 32 v70,2013-01-26 10:15:00,
2013-01-26 04:20:00,-2.7,-13.5,26.37,South,177,4.0,8.0,59,0.00,,,-99.99,Weather View 32 v70,2013-01-26 10:20:00,
2013-01-26 04:25:00,-2.6,-13.3,26.37,South,180,3.0,8.0,59,0.00,,,-99.99,Weather View 32 v70,2013-01-26 10:25:00,
2013-01-26 04:35:00,-2.2,-13.0,26.37,South,182,3.0,8.0,59,0.00,,,-99.99,Weather View 32 v70,2013-01-26 10:35:00,
2013-01-26 04:40:00,-2.2,-13.0,26.37,SE,137,0.0,8.0,59,0.00,,,-99.99,Weather View 32 v70,2013-01-26 10:40:00,
2013-01-26 04:45:00,-2.0,-12.8,26.37,SSE,147,4.0,8.0,59,0.00,,,-99.99,Weather View 32 v70,2013-01-26 10:45:00,
2013-01-26 04:50:00,-1.8,-12.7,26.37,South,190,2.0,8.0,59,0.00,,,-99.99,Weather View 32 v70,2013-01-26 10:50:00,
2013-01-26 04:55:00,-1.8,-12.7,26.37,South,189,5.0,8.0,59,0.00,,,-99.99,Weather View 32 v70,2013-01-26 10:55:00,
2013-01-26 05:00:00,-1.7,-12.5,26.37,SSE,149,3.0,8.0,59,0.00,,,-99.99,Weather View 32 v70,2013-01-26 11:00:00,
2013-01-26 05:10:00,-1.1,-12.0,26.37,South,170,3.0,10.0,59,0.00,,,-99.99,Weather View 32 v70,2013-01-26 11:10:00,
2013-01-26 05:15:00,-0.9,-11.8,26.37,SSW,195,2.0,10.0,59,0.00,,,-99.99,Weather View 32 v70,2013-01-26 11:15:00,
2013-01-26 05:20:00,-0.9,-11.8,26.37,South,177,8.0,10.0,59,0.00,,,-99.99,Weather View 32 v70,2013-01-26 11:20:00,
2013-01-26 05:30:00,-0.8,-11.6,26.37,SE,133,5.0,10.0,59,0.00,,,-99.99,Weather View 32 v70,2013-01-26 11:30:00,
2013-01-26 05:35:00,-0.8,-11.6,26.37,SSE,159,3.0,10.0,59,0.00,,,-99.99,Weather View 32 v70,2013-01-26 11:35:00,
2013-01-26 05:40:00,-0.6,-11.5,26.37,SE,139,4.0,10.0,59,0.00,,,-99.99,Weather View 32 v70,2013-01-26 11:40:00,
2013-01-26 05:45:00,-0.6,-11.5,26.37,SSE,150,4.0,10.0,59,0.00,,,-99.99,Weather View 32 v70,2013-01-26 11:45:00,
2013-01-26 05:50:00,-0.6,-11.5,26.37,SE,146,4.0,10.0,59,0.00,,,-99.99,Weather View 32 v70,2013-01-26 11:50:00,
2013-01-26 05:55:00,-0.4,-11.3,26.37,SSE,157,10.0,10.0,59,0.00,,,-99.99,Weather View 32 v70,2013-01-26 11:55:00,
2013-01-26 06:00:00,-0.4,-11.3,26.37,South,169,4.0,10.0,59,0.00,,,-99.99,Weather View 32 v70,2013-01-26 12:00:00,
2013-01-26 06:05:00,-0.2,-11.1,26.37,SSE,159,4.0,10.0,59,0.00,,,-99.99,Weather View 32 v70,2013-01-26 12:05:00,
2013-01-26 06:11:00,0.0,-11.0,26.37,South,181,3.0,10.0,59,0.00,,,-99.99,Weather View 32 v70,2013-01-26 12:11:00,
2013-01-26 06:20:00,0.0,-11.0,26.37,SSE,150,4.0,11.0,59,0.00,,,-99.99,Weather View 32 v70,2013-01-26 12:20:00,
2013-01-26 06:25:00,0.0,-11.0,26.37,SE,133,4.0,11.0,59,0.00,,,-99.99,Weather View 32 v70,2013-01-26 12:25:00,
2013-01-26 06:30:00,0.1,-10.8,26.37,SSE,162,6.0,11.0,59,0.00,,,-99.99,Weather View 32 v70,2013-01-26 12:30:00,
2013-01-26 06:35:00,0.1,-10.8,26.37,WSW,237,3.0,11.0,59,0.00,,,-99.99,Weather View 32 v70,2013-01-26 12:35:00,
2013-01-26 06:45:00,0.1,-10.8,26.37,South,178,5.0,11.0,59,0.00,,,-99.99,Weather View 32 v70,2013-01-26 12:45:00,
2013-01-26 06:50:00,0.3,-10.6,26.37,South,174,6.0,11.0,59,0.00,,,-99.99,Weather View 32 v70,2013-01-26 12:50:00,
2013-01-26 06:55:00,0.3,-10.6,26.37,SSE,164,8.0,11.0,59,0.00,,,-99.99,Weather View 32 v70,2013-01-26 12:55:00,
2013-01-26 07:00:00,0.3,-10.6,26.37,SSW,196,6.0,11.0,59,0.00,,,-99.99,Weather View 32 v70,2013-01-26 13:00:00,
2013-01-26 07:10:00,0.3,-10.6,26.37,SSW,196,4.0,11.0,59,0.00,,,-99.99,Weather View 32 v70,2013-01-26 13:10:00,
2013-01-26 07:15:00,0.1,-10.8,26.37,SSW,192,5.0,11.0,59,0.00,,,-99.99,Weather View 32 v70,2013-01-26 13:15:00,
2013-01-26 07:20:00,0.1,-10.8,26.37,SSW,195,8.0,11.0,59,0.00,,,-99.99,Weather View 32 v70,2013-01-26 13:20:00,
2013-01-26 07:25:00,0.1,-10.8,26.37,South,173,11.0,11.0,59,0.00,,,-99.99,Weather View 32 v70,2013-01-26 13:25:00,
2013-01-26 07:30:00,0.1,-10.8,26.37,SSW,194,5.0,11.0,59,0.00,,,-99.99,Weather View 32 v70,2013-01-26 13:30:00,
2013-01-26 07:35:00,0.1,-10.8,26.37,South,182,7.0,11.0,59,0.00,,,-99.99,Weather View 32 v70,2013-01-26 13:35:00,
2013-01-26 07:40:00,0.3,-10.6,26.37,SW,232,3.0,11.0,59,0.00,,,-99.99,Weather View 32 v70,2013-01-26 13:40:00,
2013-01-26 07:45:00,0.3,-10.6,26.37,South,176,7.0,11.0,59,0.00,,,-99.99,Weather View 32 v70,2013-01-26 13:45:00,
2013-01-26 07:50:00,0.5,-10.4,26.37,SSE,159,3.0,11.0,59,0.00,,,-99.99,Weather View 32 v70,2013-01-26 13:50:00,
2013-01-26 07:55:00,0.7,-10.3,26.37,SSE,167,12.0,12.0,59,0.00,,,-99.99,Weather View 32 v70,2013-01-26 13:55:00,
2013-01-26 08:00:00,0.7,-10.3,26.37,SW,222,3.0,12.0,59,0.00,,,-99.99,Weather View 32 v70,2013-01-26 14:00:00,
2013-01-26 08:05:00,0.9,-10.1,26.37,WSW,243,6.0,12.0,59,0.00,,,-99.99,Weather View 32 v70,2013-01-26 14:05:00,
2013-01-26 08:12:00,1.0,-9.9,26.37,SSW,196,5.0,12.0,59,0.00,,,-99.99,Weather View 32 v70,2013-01-26 14:12:00,
2013-01-26 08:20:00,1.2,-9.8,26.37,South,172,8.0,12.0,59,0.00,,,-99.99,Weather View 32 v70,2013-01-26 14:20:00,
2013-01-26 08:25:00,1.4,-9.6,26.37,SSE,158,7.0,12.0,59,0.00,,,-99.99,Weather View 32 v70,2013-01-26 14:25:00,
2013-01-26 08:30:00,1.6,-9.4,26.37,South,169,8.0,12.0,59,0.00,,,-99.99,Weather View 32 v70,2013-01-26 14:30:00,
2013-01-26 08:35:00,1.8,-9.2,26.37,ESE,118,6.0,12.0,59,0.00,,,-99.99,Weather View 32 v70,2013-01-26 14:35:00,
2013-01-26 08:40:00,1.9,-9.1,26.37,SE,139,5.0,12.0,59,0.00,,,-99.99,Weather View 32 v70,2013-01-26 14:40:00,
2013-01-26 08:45:00,2.1,-8.9,26.37,SSW,196,4.0,12.0,59,0.00,,,-99.99,Weather View 32 v70,2013-01-26 14:45:00,
2013-01-26 08:50:00,2.3,-8.7,26.37,South,172,4.0,12.0,59,0.00,,,-99.99,Weather View 32 v70,2013-01-26 14:50:00,
2013-01-26 08:55:00,2.5,-8.6,26.37,SSW,196,8.0,12.0,59,0.00,,,-99.99,Weather View 32 v70,2013-01-26 14:55:00,
2013-01-26 09:00:00,2.7,-8.4,26.37,SSW,208,5.0,12.0,59,0.00,,,-99.99,Weather View 32 v70,2013-01-26 15:00:00,
2013-01-26 09:10:00,3.0,-8.1,26.37,South,170,12.0,14.0,59,0.00,,,-99.99,Weather View 32 v70,2013-01-26 15:10:00,
2013-01-26 09:15:00,3.2,-7.9,26.37,SSW,204,11.0,14.0,59,0.00,,,-99.99,Weather View 32 v70,2013-01-26 15:15:00,
2013-01-26 09:20:00,3.4,-7.7,26.37,South,189,8.0,14.0,59,0.00,,,-99.99,Weather View 32 v70,2013-01-26 15:20:00,
2013-01-26 09:30:00,3.7,-7.4,26.37,SE,136,4.0,14.0,59,0.00,,,-99.99,Weather View 32 v70,2013-01-26 15:30:00,
2013-01-26 09:35:00,3.9,-7.2,26.37,South,172,9.0,14.0,59,0.00,,,-99.99,Weather View 32 v70,2013-01-26 15:35:00,
2013-01-26 09:40:00,4.1,-7.0,26.37,South,176,9.0,14.0,59,0.00,,,-99.99,Weather View 32 v70,2013-01-26 15:40:00,
2013-01-26 09:50:00,4.3,-6.9,26.37,SE,138,11.0,16.0,59,0.00,,,-99.99,Weather View 32 v70,2013-01-26 15:50:00,
2013-01-26 09:55:00,4.5,-6.7,26.37,SW,214,9.0,16.0,59,0.00,,,-99.99,Weather View 32 v70,2013-01-26 15:55:00,
2013-01-26 10:05:00,4.8,-6.4,26.37,SSE,161,11.0,16.0,59,0.00,,,-99.99,Weather View 32 v70,2013-01-26 16:05:00,
2013-01-26 10:10:00,4.8,-6.4,26.37,South,180,8.0,18.0,59,0.00,,,-99.99,Weather View 32 v70,2013-01-26 16:10:00,
2013-01-26 10:20:00,5.4,-5.8,26.37,SSE,153,6.0,18.0,59,0.00,,,-99.99,Weather View 32 v70,2013-01-26 16:20:00,
2013-01-26 10:25:00,5.4,-5.8,26.37,SSW,202,8.0,18.0,59,0.00,,,-99.99,Weather View 32 v70,2013-01-26 16:25:00,
2013-01-26 10:30:00,5.5,-5.7,26.37,SSE,163,6.0,18.0,59,0.00,,,-99.99,Weather View 32 v70,2013-01-26 16:30:00,
2013-01-26 10:35:00,5.5,-5.7,26.37,SSE,158,8.0,18.0,59,0.00,,,-99.99,Weather View 32 v70,2013-01-26 16:35:00,
2013-01-26 10:45:00,5.9,-5.3,26.37,SSW,209,3.0,18.0,59,0.00,,,-99.99,Weather View 32 v70,2013-01-26 16:45:00,
2013-01-26 10:50:00,5.9,-5.3,26.37,SSW,208,13.0,18.0,59,0.00,,,-99.99,Weather View 32 v70,2013-01-26 16:50:00,
2013-01-26 11:00:00,6.3,-5.0,26.37,SW,227,11.0,18.0,59,0.00,,,-99.99,Weather View 32 v70,2013-01-26 17:00:00,
2013-01-26 11:05:00,6.4,-4.8,26.37,South,180,9.0,18.0,59,0.00,,,-99.99,Weather View 32 v70,2013-01-26 17:05:00,
2013-01-26 11:10:00,6.6,-4.7,26.37,South,172,10.0,18.0,59,0.00,,,-99.99,Weather View 32 v70,2013-01-26 17:10:00,
2013-01-26 11:15:00,6.8,-4.5,26.37,South,177,9.0,16.0,59,0.00,,,-99.99,Weather View 32 v70,2013-01-26 17:15:00,
2013-01-26 11:20:00,7.0,-4.3,26.37,SSE,154,11.0,16.0,59,0.00,,,-99.99,Weather View 32 v70,2013-01-26 17:20:00,
2013-01-26 11:25:00,7.2,-4.1,26.37,SSE,154,5.0,16.0,59,0.00,,,-99.99,Weather View 32 v70,2013-01-26 17:25:00,
2013-01-26 11:35:00,7.7,-3.6,26.37,SSE,147,4.0,16.0,59,0.00,,,-99.99,Weather View 32 v70,2013-01-26 17:35:00,
2013-01-26 11:40:00,7.9,-3.5,26.37,South,174,9.0,16.0,59,0.00,,,-99.99,Weather View 32 v70,2013-01-26 17:40:00,
2013-01-26 11:45:00,8.1,-3.3,26.37,SW,233,6.0,16.0,59,0.00,,,-99.99,Weather View 32 v70,2013-01-26 17:45:00,
2013-01-26 11:50:00,8.2,-3.1,26.37,South,171,8.0,16.0,59,0.00,,,-99.99,Weather View 32 v70,2013-01-26 17:50:00,
2013-01-26 11:55:00,8.4,-3.0,26.37,SW,215,8.0,14.0,59,0.00,,,-99.99,Weather View 32 v70,2013-01-26 17:55:00,
2013-01-26 12:05:00,8.8,-2.6,26.37,SSE,168,3.0,14.0,59,0.00,,,-99.99,Weather View 32 v70,2013-01-26 18:05:00,
2013-01-26 12:10:00,9.0,-2.4,26.37,SSE,167,3.0,13.0,59,0.00,,,-99.99,Weather View 32 v70,2013-01-26 18:10:00,
2013-01-26 12:15:00,9.1,-2.3,26.37,South,176,6.0,13.0,59,0.00,,,-99.99,Weather View 32 v70,2013-01-26 18:15:00,
2013-01-26 12:25:00,9.7,-1.8,26.37,SE,128,8.0,13.0,59,0.00,,,-99.99,Weather View 32 v70,2013-01-26 18:25:00,
2013-01-26 12:35:00,10.2,-1.3,26.37,SSE,168,10.0,13.0,59,0.00,,,-99.99,Weather View 32 v70,2013-01-26 18:35:00,
2013-01-26 12:40:00,10.4,-1.1,26.37,SSE,165,13.0,13.0,59,0.00,,,-99.99,Weather View 32 v70,2013-01-26 18:40:00,
2013-01-26 12:45:00,10.4,-1.1,26.37,South,175,8.0,15.0,59,0.00,,,-99.99,Weather View 32 v70,2013-01-26 18:45:00,
2013-01-26 12:50:00,10.6,-0.9,26.37,WSW,257,6.0,15.0,59,0.00,,,-99.99,Weather View 32 v70,2013-01-26 18:50:00,
2013-01-26 12:55:00,10.8,-0.7,26.37,SSW,210,11.0,15.0,59,0.00,,,-99.99,Weather View 32 v70,2013-01-26 18:55:00,
2013-01-26 13:05:00,10.9,-0.6,26.37,South,180,9.0,15.0,59,0.00,,,-99.99,Weather View 32 v70,2013-01-26 19:05:00,
2013-01-26 13:10:00,11.3,-0.2,26.37,SSW,192,4.0,15.0,59,0.00,,,-99.99,Weather View 32 v70,2013-01-26 19:10:00,
2013-01-26 13:15:00,11.3,-0.2,26.37,South,171,11.0,15.0,59,0.00,,,-99.99,Weather View 32 v70,2013-01-26 19:15:00,
2013-01-26 13:20:00,11.5,-0.1,26.37,SSW,206,4.0,15.0,59,0.00,,,-99.99,Weather View 32 v70,2013-01-26 19:20:00,
2013-01-26 13:25:00,11.7,0.1,26.37,South,182,6.0,15.0,59,0.00,,,-99.99,Weather View 32 v70,2013-01-26 19:25:00,
2013-01-26 13:35:00,12.2,0.6,26.37,SW,215,6.0,15.0,59,0.00,,,-99.99,Weather View 32 v70,2013-01-26 19:35:00,
2013-01-26 13:40:00,12.2,0.6,26.37,SSE,159,3.0,15.0,59,0.00,,,-99.99,Weather View 32 v70,2013-01-26 19:40:00,
2013-01-26 13:50:00,12.7,1.1,26.37,SSE,162,6.0,15.0,59,0.00,,,-99.99,Weather View 32 v70,2013-01-26 19:50:00,
2013-01-26 13:55:00,12.9,1.3,26.37,SE,132,5.0,14.0,59,0.00,,,-99.99,Weather View 32 v70,2013-01-26 19:55:00,
2013-01-26 14:00:00,12.9,1.3,26.37,SSE,161,8.0,14.0,59,0.00,,,-99.99,Weather View 32 v70,2013-01-26 20:00:00,
2013-01-26 14:05:00,13.5,1.8,26.37,SSE,163,6.0,14.0,59,0.00,,,-99.99,Weather View 32 v70,2013-01-26 20:05:00,
2013-01-26 14:15:00,14.0,1.2,26.37,SE,138,14.0,14.0,56,0.00,,,-99.99,Weather View 32 v70,2013-01-26 20:15:00,
2013-01-26 14:20:00,14.2,1.0,26.37,SE,140,4.0,14.0,55,0.00,,,-99.99,Weather View 32 v70,2013-01-26 20:20:00,
2013-01-26 14:25:00,14.5,1.3,26.37,South,179,8.0,14.0,55,0.00,,,-99.99,Weather View 32 v70,2013-01-26 20:25:00,
2013-01-26 14:30:00,14.5,1.3,26.37,SSE,153,3.0,14.0,55,0.00,,,-99.99,Weather View 32 v70,2013-01-26 20:30:00,
2013-01-26 14:35:00,14.9,1.7,26.37,SSE,157,3.0,14.0,55,0.00,,,-99.99,Weather View 32 v70,2013-01-26 20:35:00,
2013-01-26 14:45:00,14.9,2.0,26.37,SSE,149,10.0,14.0,56,0.00,,,-99.99,Weather View 32 v70,2013-01-26 20:45:00,
2013-01-26 14:50:00,15.1,2.2,26.37,SSE,163,10.0,14.0,56,0.00,,,-99.99,Weather View 32 v70,2013-01-26 20:50:00,
2013-01-26 14:55:00,15.3,2.4,26.37,South,170,4.0,14.0,56,0.00,,,-99.99,Weather View 32 v70,2013-01-26 20:55:00,
2013-01-26 15:00:00,15.4,2.9,26.37,SSE,167,4.0,14.0,57,0.00,,,-99.99,Weather View 32 v70,2013-01-26 21:00:00,
2013-01-26 15:10:00,16.0,3.1,26.37,SSE,148,4.0,14.0,56,0.00,,,-99.99,Weather View 32 v70,2013-01-26 21:10:00,
2013-01-26 15:15:00,16.0,3.1,26.37,South,185,3.0,14.0,56,0.00,,,-99.99,Weather View 32 v70,2013-01-26 21:15:00,
2013-01-26 15:25:00,16.0,3.1,26.37,WSW,242,0.0,13.0,56,0.00,,,-99.99,Weather View 32 v70,2013-01-26 21:25:00,
2013-01-26 15:35:00,16.2,3.6,26.37,South,191,10.0,13.0,57,0.00,,,-99.99,Weather View 32 v70,2013-01-26 21:35:00,
2013-01-26 15:40:00,16.2,3.6,26.37,SW,216,4.0,13.0,57,0.00,,,-99.99,Weather View 32 v70,2013-01-26 21:40:00,
2013-01-26 15:50:00,16.7,4.5,26.37,SW,227,0.0,13.0,58,0.00,,,-99.99,Weather View 32 v70,2013-01-26 21:50:00,
2013-01-26 15:55:00,16.7,4.5,26.37,South,177,6.0,13.0,58,0.00,,,-99.99,Weather View 32 v70,2013-01-26 21:55:00,
2013-01-26 16:00:00,16.7,4.5,26.37,ENE,78,6.0,13.0,58,0.00,,,-99.99,Weather View 32 v70,2013-01-26 22:00:00,
2013-01-26 16:10:00,16.7,4.5,26.37,SSE,156,6.0,13.0,58,0.00,,,-99.99,Weather View 32 v70,2013-01-26 22:10:00,
2013-01-26 16:15:00,16.7,4.9,26.37,SSE,165,6.0,13.0,59,0.00,,,-99.99,Weather View 32 v70,2013-01-26 22:15:00,
2013-01-26 16:25:00,16.7,4.9,26.37,South,182,5.0,12.0,59,0.00,,,-99.99,Weather View 32 v70,2013-01-26 22:25:00,
2013-01-26 16:30:00,16.7,4.9,26.37,South,176,6.0,12.0,59,0.00,,,-99.99,Weather View 32 v70,2013-01-26 22:30:00,
2013-01-26 16:35:00,16.5,4.7,26.37,SSW,208,6.0,11.0,59,0.00,,,-99.99,Weather View 32 v70,2013-01-26 22:35:00,
2013-01-26 16:40:00,16.5,4.7,26.37,SSW,192,8.0,13.0,59,0.00,,,-99.99,Weather View 32 v70,2013-01-26 22:40:00,
2013-01-26 16:50:00,16.3,4.5,26.37,South,185,6.0,13.0,59,0.00,,,-99.99,Weather View 32 v70,2013-01-26 22:50:00,
2013-01-26 16:55:00,16.3,4.5,26.37,South,170,5.0,13.0,59,0.00,,,-99.99,Weather View 32 v70,2013-01-26 22:55:00,
2013-01-26 17:00:00,16.2,4.4,26.37,SSW,197,9.0,13.0,59,0.00,,,-99.99,Weather View 32 v70,2013-01-26 23:00:00,
2013-01-26 17:05:00,16.2,4.4,26.37,South,181,5.0,13.0,59,0.00,,,-99.99,Weather View 32 v70,2013-01-26 23:05:00,
2013-01-26 17:10:00,16.2,4.7,26.37,South,176,8.0,13.0,60,0.00,,,-99.99,Weather View 32 v70,2013-01-26 23:10:00,
2013-01-26 17:17:00,16.2,4.7,26.37,SSE,168,8.0,13.0,60,0.00,,,-99.99,Weather View 32 v70,2013-01-26 23:17:00,
2013-01-26 17:25:00,16.0,4.5,26.37,SSE,163,8.0,13.0,60,0.00,,,-99.99,Weather View 32 v70,2013-01-26 23:25:00,
2013-01-26 17:30:00,16.0,4.5,26.37,SSE,148,5.0,13.0,60,0.00,,,-99.99,Weather View 32 v70,2013-01-26 23:30:00,
2013-01-26 17:40:00,15.8,4.7,26.37,SSE,162,6.0,12.0,61,0.00,,,-99.99,Weather View 32 v70,2013-01-26 23:40:00,
2013-01-26 17:45:00,15.6,4.6,26.37,SSW,200,5.0,11.0,61,0.00,,,-99.99,Weather View 32 v70,2013-01-26 23:45:00,
2013-01-26 17:50:00,15.4,4.4,26.37,SSE,166,4.0,11.0,61,0.00,,,-99.99,Weather View 32 v70,2013-01-26 23:50:00,
2013-01-26 17:55:00,15.4,4.4,26.37,South,189,3.0,11.0,61,0.00,,,-99.99,Weather View 32 v70,2013-01-26 23:55:00,
2013-01-26 18:00:00,15.3,4.6,26.37,South,185,5.0,11.0,62,0.00,,,-99.99,Weather View 32 v70,2013-01-27 00:00:00,
2013-01-26 18:10:00,15.1,4.8,26.37,SSE,150,4.0,11.0,63,0.00,,,-99.99,Weather View 32 v70,2013-01-27 00:10:00,
2013-01-26 18:15:00,15.1,4.8,26.37,South,171,4.0,11.0,63,0.00,,,-99.99,Weather View 32 v70,2013-01-27 00:15:00,
2013-01-26 18:20:00,15.1,4.8,26.37,South,177,5.0,11.0,63,0.00,,,-99.99,Weather View 32 v70,2013-01-27 00:20:00,
2013-01-26 18:25:00,15.1,5.1,26.37,SE,135,5.0,11.0,64,0.00,,,-99.99,Weather View 32 v70,2013-01-27 00:25:00,
2013-01-26 18:30:00,14.9,4.9,26.37,SSE,166,5.0,11.0,64,0.00,,,-99.99,Weather View 32 v70,2013-01-27 00:30:00,
2013-01-26 18:35:00,14.9,4.9,26.37,South,181,6.0,11.0,64,0.00,,,-99.99,Weather View 32 v70,2013-01-27 00:35:00,
2013-01-26 18:45:00,14.9,5.3,26.37,SSE,150,6.0,11.0,65,0.00,,,-99.99,Weather View 32 v70,2013-01-27 00:45:00,
2013-01-26 18:50:00,14.9,5.6,26.37,SSW,192,7.0,11.0,66,0.00,,,-99.99,Weather View 32 v70,2013-01-27 00:50:00,
2013-01-26 18:55:00,14.9,5.9,26.37,South,176,9.0,10.0,67,0.00,,,-99.99,Weather View 32 v70,2013-01-27 00:55:00,
2013-01-26 19:00:00,15.1,6.1,26.37,SE,142,8.0,10.0,67,0.00,,,-99.99,Weather View 32 v70,2013-01-27 01:00:00,
2013-01-26 19:05:00,15.1,6.4,26.37,South,179,4.0,10.0,68,0.00,,,-99.99,Weather View 32 v70,2013-01-27 01:05:00,
2013-01-26 19:15:00,15.1,6.4,26.37,SSW,213,3.0,10.0,68,0.00,,,-99.99,Weather View 32 v70,2013-01-27 01:15:00,
2013-01-26 19:20:00,15.1,6.4,26.37,SSW,197,10.0,10.0,68,0.00,,,-99.99,Weather View 32 v70,2013-01-27 01:20:00,
2013-01-26 19:25:00,15.1,6.7,26.37,SSW,207,8.0,10.0,69,0.00,,,-99.99,Weather View 32 v70,2013-01-27 01:25:00,
2013-01-26 19:30:00,15.3,6.9,26.37,SSE,157,6.0,10.0,69,0.00,,,-99.99,Weather View 32 v70,2013-01-27 01:30:00,
2013-01-26 19:35:00,15.3,6.9,26.37,SE,143,6.0,12.0,69,0.00,,,-99.99,Weather View 32 v70,2013-01-27 01:35:00,
2013-01-26 19:40:00,15.4,7.1,26.37,South,190,3.0,12.0,69,0.00,,,-99.99,Weather View 32 v70,2013-01-27 01:40:00,
2013-01-26 19:50:00,15.8,7.4,26.37,SE,135,5.0,12.0,69,0.00,,,-99.99,Weather View 32 v70,2013-01-27 01:50:00,
2013-01-26 19:55:00,15.8,7.1,26.37,South,171,6.0,12.0,68,0.00,,,-99.99,Weather View 32 v70,2013-01-27 01:55:00,
2013-01-26 20:00:00,15.8,7.1,26.37,South,182,4.0,12.0,68,0.00,,,-99.99,Weather View 32 v70,2013-01-27 02:00:00,
2013-01-26 20:05:00,15.8,6.8,26.37,South,173,7.0,12.0,67,0.00,,,-99.99,Weather View 32 v70,2013-01-27 02:05:00,
2013-01-26 20:10:00,15.8,6.8,26.37,SSW,201,4.0,12.0,67,0.00,,,-99.99,Weather View 32 v70,2013-01-27 02:10:00,
2013-01-26 20:15:00,15.8,6.5,26.37,SSW,196,8.0,12.0,66,0.00,,,-99.99,Weather View 32 v70,2013-01-27 02:15:00,
2013-01-26 20:25:00,15.8,6.1,26.37,South,176,6.0,13.0,65,0.00,,,-99.99,Weather View 32 v70,2013-01-27 02:25:00,
2013-01-26 20:30:00,15.6,6.0,26.37,South,182,5.0,13.0,65,0.00,,,-99.99,Weather View 32 v70,2013-01-27 02:30:00,
2013-01-26 20:35:00,15.4,5.8,26.37,South,181,4.0,13.0,65,0.00,,,-99.99,Weather View 32 v70,2013-01-27 02:35:00,
2013-01-26 20:40:00,15.4,5.8,26.37,SSW,207,2.0,13.0,65,0.00,,,-99.99,Weather View 32 v70,2013-01-27 02:40:00,
2013-01-26 20:45:00,15.3,5.6,26.37,SSW,207,3.0,13.0,65,0.00,,,-99.99,Weather View 32 v70,2013-01-27 02:45:00,
2013-01-26 20:50:00,15.3,5.6,26.37,South,174,0.0,13.0,65,0.00,,,-99.99,Weather View 32 v70,2013-01-27 02:50:00,
2013-01-26 20:55:00,15.3,5.6,26.37,SSE,153,3.0,13.0,65,0.00,,,-99.99,Weather View 32 v70,2013-01-27 02:55:00,
2013-01-26 21:00:00,15.3,5.6,26.37,South,176,3.0,13.0,65,0.00,,,-99.99,Weather View 32 v70,2013-01-27 03:00:00,
2013-01-26 21:10:00,15.4,5.8,26.37,SSW,205,4.0,13.0,65,0.00,,,-99.99,Weather View 32 v70,2013-01-27 03:10:00,
2013-01-26 21:15:00,15.4,5.8,26.37,SSE,159,4.0,13.0,65,0.00,,,-99.99,Weather View 32 v70,2013-01-27 03:15:00,
2013-01-26 21:20:00,15.4,5.8,26.37,South,183,4.0,13.0,65,0.00,,,-99.99,Weather View 32 v70,2013-01-27 03:20:00,
2013-01-26 21:30:00,15.4,5.4,26.37,SE,138,0.0,10.0,64,0.00,,,-99.99,Weather View 32 v70,2013-01-27 03:30:00,
2013-01-26 21:35:00,15.3,5.3,26.37,South,171,0.0,9.0,64,0.00,,,-99.99,Weather View 32 v70,2013-01-27 03:35:00,
2013-01-26 21:40:00,15.1,4.8,26.37,SE,137,3.0,9.0,63,0.00,,,-99.99,Weather View 32 v70,2013-01-27 03:40:00,
2013-01-26 21:50:00,14.7,4.4,26.37,ESE,123,0.0,9.0,63,0.00,,,-99.99,Weather View 32 v70,2013-01-27 03:50:00,
2013-01-26 21:55:00,14.5,4.2,26.37,SE,133,3.0,9.0,63,0.00,,,-99.99,Weather View 32 v70,2013-01-27 03:55:00,
2013-01-26 22:00:00,14.5,4.6,26.37,SE,145,3.0,9.0,64,0.00,,,-99.99,Weather View 32 v70,2013-01-27 04:00:00,
2013-01-26 22:05:00,14.7,4.8,26.37,SE,136,0.0,9.0,64,0.00,,,-99.99,Weather View 32 v70,2013-01-27 04:05:00,
2013-01-26 22:10:00,14.7,4.8,26.37,South,188,3.0,9.0,64,0.00,,,-99.99,Weather View 32 v70,2013-01-27 04:10:00,
2013-01-26 22:20:00,14.5,4.6,26.37,SSE,168,4.0,9.0,64,0.00,,,-99.99,Weather View 32 v70,2013-01-27 04:20:00,
2013-01-26 22:25:00,14.5,4.6,26.37,South,181,0.0,6.0,64,0.00,,,-99.99,Weather View 32 v70,2013-01-27 04:25:00,
2013-01-26 22:30:00,14.4,4.4,26.37,South,181,0.0,6.0,64,0.00,,,-99.99,Weather View 32 v70,2013-01-27 04:30:00,
2013-01-26 22:35:00,14.2,3.9,26.37,South,181,0.0,6.0,63,0.00,,,-99.99,Weather View 32 v70,2013-01-27 04:35:00,
2013-01-26 22:40:00,14.4,4.4,26.37,SE,146,0.0,6.0,64,0.00,,,-99.99,Weather View 32 v70,2013-01-27 04:40:00,
2013-01-26 22:45:00,14.4,4.4,26.37,SE,136,3.0,6.0,64,0.00,,,-99.99,Weather View 32 v70,2013-01-27 04:45:00,
2013-01-26 22:50:00,14.4,4.4,26.37,SSE,149,2.0,6.0,64,0.00,,,-99.99,Weather View 32 v70,2013-01-27 04:50:00,
2013-01-26 22:55:00,14.5,4.6,26.37,SSE,149,0.0,6.0,64,0.00,,,-99.99,Weather View 32 v70,2013-01-27 04:55:00,
2013-01-26 23:00:00,14.5,4.6,26.37,SSE,152,0.0,6.0,64,0.00,,,-99.99,Weather View 32 v70,2013-01-27 05:00:00,
2013-01-26 23:10:00,14.5,4.2,26.37,SSE,153,0.0,6.0,63,0.00,,,-99.99,Weather View 32 v70,2013-01-27 05:10:00,
2013-01-26 23:20:00,14.4,4.1,26.37,ESE,120,0.0,5.0,63,0.00,,,-99.99,Weather View 32 v70,2013-01-27 05:20:00,
2013-01-26 23:25:00,14.4,4.1,26.37,SE,135,3.0,5.0,63,0.00,,,-99.99,Weather View 32 v70,2013-01-27 05:25:00,
2013-01-26 23:30:00,14.2,3.9,26.37,SE,143,3.0,5.0,63,0.00,,,-99.99,Weather View 32 v70,2013-01-27 05:30:00,
2013-01-26 23:35:00,14.4,4.1,26.37,SSE,148,2.0,5.0,63,0.00,,,-99.99,Weather View 32 v70,2013-01-27 05:35:00,
2013-01-26 23:40:00,14.2,3.9,26.37,SE,145,3.0,5.0,63,0.00,,,-99.99,Weather View 32 v70,2013-01-27 05:40:00,
2013-01-26 23:45:00,14.4,4.1,26.37,SSE,148,3.0,5.0,63,0.00,,,-99.99,Weather View 32 v70,2013-01-27 05:45:00,
2013-01-26 23:50:00,14.4,4.1,26.37,SSE,165,2.0,4.0,63,0.00,,,-99.99,Weather View 32 v70,2013-01-27 05:50:00,
2013-01-26 23:55:00,14.2,3.9,26.37,SE,129,2.0,4.0,63,0.00,,,-99.99,Weather View 32 v70,2013-01-27 05:55:00,